Time;durP1;ratioP1;P1;durP2;ratioP2;P2;SDS_P1;SDS_P2;PMS_P1;PMS_P2;Temp;Humidity;BMP_temperature;BMP_pressure;BME280_temperature;BME280_humidity;BME280_pressure;Samples;Min_cycle;Max_cycle;Signal;HPM_P1;HPM_P2
2021/09/04 00:00:37;;;;;;;;;;;;;;;8.84;64.59;98205.84;4957171;28;19929;-92
2021/09/04 00:03:03;;;;;;;;;;;;;;;8.85;65.23;98206.66;4957866;28;19954;-92
2021/09/04 00:05:31;;;;;;;;;;;;;;;8.92;65.47;98204.19;4957180;28;19965;-89
2021/09/04 00:07:57;;;;;;;;;;;;;;;8.95;65.30;98209.00;4941854;28;20367;-90
2021/09/04 00:10:25;;;;;;;;;;;;;;;8.91;65.38;98206.13;4940241;28;19927;-90
2021/09/04 00:12:51;;;;;;;;;;;;;;;8.84;64.55;98214.03;4951143;29;19934;-91
2021/09/04 00:15:18;;;;;;;;;;;;;;;8.84;65.06;98213.22;4939257;29;19933;-94
2021/09/04 00:17:46;;;;;;;;;;;;;;;8.87;64.75;98216.09;4938394;29;20359;-92
2021/09/04 00:20:12;;;;;;;;;;;;;;;8.79;64.65;98219.66;4945424;28;19930;-93
2021/09/04 00:22:38;;;;;;;;;;;;;;;8.84;65.18;98224.94;4953972;29;19969;-91
2021/09/04 00:25:04;;;;;;;;;;;;;;;8.80;64.84;98221.25;4966072;28;19926;-93
2021/09/04 00:27:30;;;;;;;;;;;;;;;8.83;65.07;98233.41;4973475;28;19926;-92
2021/09/04 00:29:57;;;;;;;;;;;;;;;8.86;64.61;98225.38;4949511;29;19933;-91
2021/09/04 00:32:23;;;;;;;;;;;;;;;8.92;64.46;98226.81;4963828;28;19925;-92
2021/09/04 00:34:51;;;;;;;;;;;;;;;8.90;64.46;98225.53;4973392;28;20407;-94
2021/09/04 00:37:17;;;;;;;;;;;;;;;8.76;64.24;98230.41;4957345;28;20434;-90
2021/09/04 00:39:44;;;;;;;;;;;;;;;8.82;63.83;98234.56;4973645;28;19927;-90
2021/09/04 00:42:09;;;;;;;;;;;;;;;8.90;65.22;98233.69;4957175;28;19926;-90
2021/09/04 00:44:37;;;;;;;;;;;;;;;8.91;64.64;98235.31;4973502;28;19930;-92
2021/09/04 00:47:04;;;;;;;;;;;;;;;8.87;64.29;98242.53;4973760;28;19926;-92
2021/09/04 00:49:31;;;;;;;;;;;;;;;8.92;64.18;98245.09;4972544;28;19926;-93
2021/09/04 00:51:57;;;;;;;;;;;;;;;8.85;63.75;98240.16;4940494;28;19930;-92
2021/09/04 00:54:25;;;;;;;;;;;;;;;8.91;63.90;98244.28;4957068;28;20021;-92
2021/09/04 00:56:51;;;;;;;;;;;;;;;8.87;64.42;98251.53;4957087;28;20041;-92
2021/09/04 00:59:18;;;;;;;;;;;;;;;8.84;64.05;98252.19;4973931;28;20565;-90
2021/09/04 01:01:44;;;;;;;;;;;;;;;8.74;64.88;98247.09;4947887;29;20577;-90
2021/09/04 01:04:11;;;;;;;;;;;;;;;8.75;65.46;98262.31;4930140;28;19926;-91
2021/09/04 01:06:39;;;;;;;;;;;;;;;8.82;64.76;98259.06;4941324;28;19989;-94
2021/09/04 01:09:05;;;;;;;;;;;;;;;8.89;64.26;98264.81;4956760;28;20403;-92
2021/09/04 01:11:32;;;;;;;;;;;;;;;8.86;64.29;98271.72;4956308;28;19926;-92
2021/09/04 01:14:00;;;;;;;;;;;;;;;8.93;64.66;98276.66;4972860;28;19926;-90
2021/09/04 01:16:39;;;;;;;;;;;;;;;8.77;65.50;98261.97;4973860;28;20422;-92
2021/09/04 01:19:07;;;;;;;;;;;;;;;8.73;65.57;98270.00;4956719;28;20508;-92
2021/09/04 01:21:33;;;;;;;;;;;;;;;8.75;66.10;98265.03;4937599;28;19926;-91
2021/09/04 01:24:03;;;;;;;;;;;;;;;8.66;65.94;98273.22;4958201;28;19926;-92
2021/09/04 01:26:29;;;;;;;;;;;;;;;8.65;65.78;98273.56;4956570;28;19926;-93
2021/09/04 01:28:55;;;;;;;;;;;;;;;8.64;66.31;98270.03;4956706;28;20036;-91
2021/09/04 01:31:22;;;;;;;;;;;;;;;8.55;65.21;98277.44;4940500;28;19930;-94
2021/09/04 01:33:49;;;;;;;;;;;;;;;8.50;65.09;98266.72;4940070;28;19934;-94
2021/09/04 01:36:28;;;;;;;;;;;;;;;8.52;64.74;98264.47;4956590;28;19922;-92
2021/09/04 01:38:55;;;;;;;;;;;;;;;8.58;65.34;98278.72;4937699;29;19933;-91
2021/09/04 01:41:21;;;;;;;;;;;;;;;8.68;65.42;98278.38;4928670;28;19922;-91
2021/09/04 01:43:47;;;;;;;;;;;;;;;8.70;64.74;98284.28;4972168;28;20028;-91
2021/09/04 01:46:13;;;;;;;;;;;;;;;8.70;64.24;98279.63;4972654;28;20009;-92
2021/09/04 01:48:41;;;;;;;;;;;;;;;8.66;63.94;98273.22;4972685;28;19973;-91
2021/09/04 01:51:06;;;;;;;;;;;;;;;8.65;65.01;98287.97;4956011;28;20425;-91
2021/09/04 01:53:32;;;;;;;;;;;;;;;8.62;65.79;98269.56;4972503;28;19981;-92
2021/09/04 01:56:00;;;;;;;;;;;;;;;8.59;65.24;98272.94;4940632;28;19977;-94
2021/09/04 01:58:26;;;;;;;;;;;;;;;8.59;65.50;98280.31;4974221;28;20018;-94
2021/09/04 02:00:52;;;;;;;;;;;;;;;8.63;64.35;98283.97;4943820;28;20069;-95
2021/09/04 02:03:18;;;;;;;;;;;;;;;8.64;64.50;98289.13;4944009;28;19926;-91
2021/09/04 02:05:45;;;;;;;;;;;;;;;8.69;64.33;98286.19;4959539;28;19926;-92
2021/09/04 02:08:11;;;;;;;;;;;;;;;8.69;64.56;98304.47;4976068;28;20249;-92
2021/09/04 02:10:37;;;;;;;;;;;;;;;8.67;64.75;98293.88;4975625;28;19930;-91
2021/09/04 02:13:03;;;;;;;;;;;;;;;8.60;64.58;98290.88;4951411;29;19981;-94
2021/09/04 02:15:29;;;;;;;;;;;;;;;8.53;65.40;98279.69;4968616;28;19926;-93
2021/09/04 02:17:56;;;;;;;;;;;;;;;8.61;65.95;98306.09;4942339;29;19922;-91
2021/09/04 02:20:23;;;;;;;;;;;;;;;8.59;65.57;98296.66;4957583;28;20404;-91
2021/09/04 02:22:52;;;;;;;;;;;;;;;8.57;65.10;98307.06;4956666;28;20069;-95
2021/09/04 02:25:18;;;;;;;;;;;;;;;8.49;65.59;98300.53;4951920;28;19973;-92
2021/09/04 02:27:46;;;;;;;;;;;;;;;8.46;65.95;98312.84;4940312;29;19926;-93
2021/09/04 02:30:12;;;;;;;;;;;;;;;8.51;66.01;98308.34;4940096;29;19930;-93
2021/09/04 02:32:40;;;;;;;;;;;;;;;8.45;66.55;98316.72;4956119;29;19930;-91
2021/09/04 02:35:07;;;;;;;;;;;;;;;8.49;66.33;98311.41;4952078;28;19948;-93
2021/09/04 02:37:33;;;;;;;;;;;;;;;8.53;66.40;98319.75;4957124;28;20363;-94
2021/09/04 02:40:01;;;;;;;;;;;;;;;8.53;66.58;98331.44;4975180;28;20549;-91
2021/09/04 02:42:28;;;;;;;;;;;;;;;8.53;65.89;98322.47;4975631;28;19985;-95
2021/09/04 02:44:55;;;;;;;;;;;;;;;8.51;65.65;98320.06;4967645;28;19926;-93
2021/09/04 02:47:22;;;;;;;;;;;;;;;8.51;64.94;98320.06;4940136;29;19930;-93
2021/09/04 02:49:49;;;;;;;;;;;;;;;8.46;66.19;98323.75;4940067;29;19934;-92
2021/09/04 02:52:16;;;;;;;;;;;;;;;8.46;65.38;98328.41;4940242;29;19922;-92
2021/09/04 02:54:42;;;;;;;;;;;;;;;8.48;65.34;98323.44;4925385;28;19938;-95
2021/09/04 02:57:09;;;;;;;;;;;;;;;8.48;64.69;98337.06;4958248;28;19926;-93
2021/09/04 02:59:35;;;;;;;;;;;;;;;8.45;65.24;98329.53;4959343;28;19926;-96
2021/09/04 03:02:03;;;;;;;;;;;;;;;8.43;65.16;98337.22;4959454;28;20315;-91
2021/09/04 03:04:29;;;;;;;;;;;;;;;8.41;65.38;98320.38;4969030;28;19926;-90
2021/09/04 03:06:57;;;;;;;;;;;;;;;8.45;65.60;98340.44;4939703;29;19926;-90
2021/09/04 03:09:24;;;;;;;;;;;;;;;8.41;66.27;98337.56;4948782;28;19977;-93
2021/09/04 03:11:52;;;;;;;;;;;;;;;8.38;65.94;98340.91;4959312;28;19930;-90
2021/09/04 03:14:18;;;;;;;;;;;;;;;8.36;65.39;98345.84;4959406;28;19925;-95
2021/09/04 03:16:49;;;;;;;;;;;;;;;8.32;66.11;98355.00;4975028;28;20021;-96
2021/09/04 03:19:14;;;;;;;;;;;;;;;8.35;65.35;98359.78;4955703;29;19941;-93
2021/09/04 03:21:40;;;;;;;;;;;;;;;8.33;65.00;98360.09;4954808;29;20033;-90
2021/09/04 03:24:07;;;;;;;;;;;;;;;8.34;65.41;98347.28;4954967;29;20307;-94
2021/09/04 03:26:34;;;;;;;;;;;;;;;8.33;65.37;98351.94;4954226;28;19953;-93
2021/09/04 03:29:00;;;;;;;;;;;;;;;8.21;65.30;98355.31;4964149;28;19926;-93
2021/09/04 03:31:26;;;;;;;;;;;;;;;8.27;65.67;98374.19;4960465;28;19926;-93
2021/09/04 03:33:52;;;;;;;;;;;;;;;8.27;65.69;98357.84;4975628;28;19926;-91
2021/09/04 03:36:19;;;;;;;;;;;;;;;8.30;65.17;98363.47;4974030;28;20373;-95
2021/09/04 03:38:45;;;;;;;;;;;;;;;8.33;65.25;98357.38;4974041;28;19958;-90
2021/09/04 03:41:12;;;;;;;;;;;;;;;8.30;65.13;98368.09;4958172;28;19937;-91
2021/09/04 03:43:39;;;;;;;;;;;;;;;8.30;65.12;98368.91;4958736;28;19977;-96
2021/09/04 03:46:06;;;;;;;;;;;;;;;8.37;64.92;98371.16;4958503;28;19949;-96
2021/09/04 03:48:33;;;;;;;;;;;;;;;8.44;66.05;98375.03;4958452;28;19930;-95
2021/09/04 03:51:02;;;;;;;;;;;;;;;8.52;65.26;98386.25;4958555;28;19934;-90
2021/09/04 03:53:29;;;;;;;;;;;;;;;8.52;64.87;98378.88;4974060;28;19961;-96
2021/09/04 03:55:56;;;;;;;;;;;;;;;8.52;65.69;98387.03;4954837;29;19933;-92
2021/09/04 03:58:39;;;;;;;;;;;;;;;8.50;65.93;98388.47;5090228;27;19924;-89
2021/09/04 04:01:07;;;;;;;;;;;;;;;8.56;65.78;98398.88;5053803;28;20031;-91
2021/09/04 04:03:34;;;;;;;;;;;;;;;8.57;65.55;98394.22;5052190;28;19924;-92
2021/09/04 04:06:01;;;;;;;;;;;;;;;8.56;65.43;98393.44;5070161;28;19928;-89
2021/09/04 04:08:27;;;;;;;;;;;;;;;8.60;65.28;98402.56;5115831;28;20362;-94
2021/09/04 04:11:03;;;;;;;;;;;;;;;8.57;65.49;98405.13;5071367;28;19929;-94
2021/09/04 04:13:29;;;;;;;;;;;;;;;8.59;65.62;98414.59;5051686;28;20401;-90
2021/09/04 04:15:55;;;;;;;;;;;;;;;8.60;65.46;98404.47;5069732;28;20023;-94
2021/09/04 04:18:21;;;;;;;;;;;;;;;8.54;65.28;98414.72;5060674;28;19993;-89
2021/09/04 04:20:47;;;;;;;;;;;;;;;8.60;66.24;98418.09;5108814;28;19929;-88
2021/09/04 04:23:13;;;;;;;;;;;;;;;8.64;65.59;98417.16;5122604;28;20295;-90
2021/09/04 04:25:40;;;;;;;;;;;;;;;8.67;66.96;98424.66;5090040;28;19978;-93
2021/09/04 04:28:07;;;;;;;;;;;;;;;8.70;66.67;98429.47;5079216;28;19936;-90
2021/09/04 04:30:33;;;;;;;;;;;;;;;8.75;67.33;98436.69;5052563;28;19924;-95
2021/09/04 04:33:01;;;;;;;;;;;;;;;8.85;67.86;98436.34;5051028;28;20027;-90
2021/09/04 04:35:27;;;;;;;;;;;;;;;8.80;68.58;98431.06;5101083;28;19935;-88
2021/09/04 04:37:55;;;;;;;;;;;;;;;8.83;68.11;98438.59;5067685;28;20397;-90
2021/09/04 04:40:22;;;;;;;;;;;;;;;8.84;70.28;98444.84;5050861;28;20017;-88
2021/09/04 04:42:50;;;;;;;;;;;;;;;8.83;69.39;98441.31;5051044;28;20413;-91
2021/09/04 04:45:16;;;;;;;;;;;;;;;8.90;69.93;98440.81;5034447;28;19931;-90
2021/09/04 04:47:44;;;;;;;;;;;;;;;8.79;69.26;98445.03;5034977;28;19925;-88
2021/09/04 04:50:12;;;;;;;;;;;;;;;8.70;69.63;98455.91;5035514;28;19924;-91
2021/09/04 04:52:39;;;;;;;;;;;;;;;8.56;70.74;98450.63;5067820;28;19932;-92
2021/09/04 04:55:07;;;;;;;;;;;;;;;8.52;70.36;98444.22;5051173;28;19994;-92
2021/09/04 04:57:34;;;;;;;;;;;;;;;8.59;69.63;98477.25;5080021;28;20447;-89
2021/09/04 05:00:01;;;;;;;;;;;;;;;8.68;70.42;98467.16;5071690;28;19961;-93
2021/09/04 05:02:28;;;;;;;;;;;;;;;8.72;70.46;98477.41;5071122;28;20450;-91
2021/09/04 05:04:54;;;;;;;;;;;;;;;8.70;69.42;98470.34;5064549;28;20429;-92
2021/09/04 05:07:26;;;;;;;;;;;;;;;8.70;70.89;98475.78;5075314;28;19923;-96
2021/09/04 05:10:20;;;;;;;;;;;;;;;8.75;69.55;98469.38;5026238;28;20345;-92
2021/09/04 05:12:47;;;;;;;;;;;;;;;8.80;70.98;98487.50;5001042;28;19968;-93
2021/09/04 05:15:13;;;;;;;;;;;;;;;8.85;71.98;98477.22;4984973;28;19925;-93
2021/09/04 05:17:43;;;;;;;;;;;;;;;8.75;70.30;98479.50;4981335;28;19944;-94
2021/09/04 05:20:12;;;;;;;;;;;;;;;8.73;70.60;98470.81;4995463;28;20394;-90
2021/09/04 05:22:42;;;;;;;;;;;;;;;8.82;69.73;98474.34;5002163;28;20389;-91
2021/09/04 05:25:10;;;;;;;;;;;;;;;8.79;70.46;98480.44;4983330;28;19975;-94
2021/09/04 05:27:36;;;;;;;;;;;;;;;8.78;70.59;98484.31;4997116;28;19925;-95
2021/09/04 05:30:02;;;;;;;;;;;;;;;8.83;69.83;98484.91;5013765;28;19925;-92
2021/09/04 05:32:28;;;;;;;;;;;;;;;8.76;70.56;98489.25;4999559;28;20023;-94
2021/09/04 05:34:54;;;;;;;;;;;;;;;8.90;72.07;98492.59;5001187;28;20024;-93
2021/09/04 05:37:22;;;;;;;;;;;;;;;8.93;70.70;98497.41;4990742;28;19988;-89
2021/09/04 05:39:48;;;;;;;;;;;;;;;9.01;70.97;98487.66;4997012;28;20651;-91
2021/09/04 05:42:14;;;;;;;;;;;;;;;9.09;70.20;98495.81;5010631;28;19925;-92
2021/09/04 05:44:43;;;;;;;;;;;;;;;9.11;68.66;98512.66;5016483;28;19975;-92
2021/09/04 05:47:28;;;;;;;;;;;;;;;9.25;69.46;98498.03;5038251;28;19924;-91
2021/09/04 05:49:54;;;;;;;;;;;;;;;9.36;68.80;98504.72;5049423;28;19931;-92
2021/09/04 05:52:20;;;;;;;;;;;;;;;9.34;66.65;98504.28;5024910;28;19924;-91
2021/09/04 05:54:48;;;;;;;;;;;;;;;9.25;67.42;98511.66;5042307;28;19987;-92
2021/09/04 05:57:16;;;;;;;;;;;;;;;9.28;67.63;98527.38;5028297;28;20498;-94
2021/09/04 05:59:42;;;;;;;;;;;;;;;9.30;66.72;98517.72;5036858;28;19925;-93
2021/09/04 06:02:08;;;;;;;;;;;;;;;9.28;67.63;98508.28;5038715;28;19924;-93
2021/09/04 06:04:35;;;;;;;;;;;;;;;9.33;66.06;98508.09;5025754;28;20302;-92
2021/09/04 06:07:01;;;;;;;;;;;;;;;9.38;66.67;98516.13;5062898;28;19932;-93
2021/09/04 06:09:30;;;;;;;;;;;;;;;9.47;67.32;98518.81;5053434;28;20016;-93
2021/09/04 06:11:55;;;;;;;;;;;;;;;9.52;67.60;98516.72;5044785;28;19991;-93
2021/09/04 06:14:23;;;;;;;;;;;;;;;9.56;65.78;98508.69;5036984;28;19924;-93
2021/09/04 06:16:49;;;;;;;;;;;;;;;9.59;66.54;98516.22;5020512;28;19929;-93
2021/09/04 06:19:15;;;;;;;;;;;;;;;9.74;65.33;98517.63;5020311;28;19924;-94
2021/09/04 06:21:41;;;;;;;;;;;;;;;9.73;65.10;98508.63;5019482;28;19931;-96
2021/09/04 06:24:10;;;;;;;;;;;;;;;9.73;64.15;98505.88;5036843;28;20012;-94
2021/09/04 06:26:39;;;;;;;;;;;;;;;9.70;64.67;98519.38;5017905;28;19924;-95
2021/09/04 06:29:05;;;;;;;;;;;;;;;9.84;63.96;98498.16;5031587;28;19951;-94
2021/09/04 06:31:31;;;;;;;;;;;;;;;10.11;64.17;98522.28;5020191;28;19928;-91
2021/09/04 06:33:58;;;;;;;;;;;;;;;10.13;63.24;98505.53;5036539;28;19925;-92
2021/09/04 06:36:24;;;;;;;;;;;;;;;10.11;62.68;98522.28;5019648;28;20491;-93
2021/09/04 06:38:50;;;;;;;;;;;;;;;10.05;60.82;98522.78;5037015;28;20462;-93
2021/09/04 06:41:16;;;;;;;;;;;;;;;10.19;60.56;98509.69;5036052;28;19925;-92
2021/09/04 06:43:42;;;;;;;;;;;;;;;10.36;59.40;98514.28;5016192;28;20018;-91
2021/09/04 06:46:08;;;;;;;;;;;;;;;10.40;58.73;98511.69;5058905;28;20031;-94
2021/09/04 06:48:34;;;;;;;;;;;;;;;10.40;57.30;98512.50;5024949;28;20020;-91
2021/09/04 06:50:59;;;;;;;;;;;;;;;10.48;57.68;98514.38;5041386;28;19925;-91
2021/09/04 06:53:26;;;;;;;;;;;;;;;10.28;58.70;98526.06;5045593;28;19925;-90
2021/09/04 06:55:54;;;;;;;;;;;;;;;10.43;58.66;98517.31;5022812;28;19932;-83
2021/09/04 06:58:20;;;;;;;;;;;;;;;10.55;56.53;98530.25;5046996;28;19924;-83
2021/09/04 07:00:47;;;;;;;;;;;;;;;10.55;57.72;98524.78;5052936;28;19932;-82
2021/09/04 07:03:12;;;;;;;;;;;;;;;10.38;59.78;98533.09;5050128;28;19944;-82
2021/09/04 07:05:38;;;;;;;;;;;;;;;10.21;60.37;98512.13;5047205;28;20388;-83
2021/09/04 07:08:05;;;;;;;;;;;;;;;10.24;60.29;98530.56;5067623;28;20381;-83
2021/09/04 07:10:31;;;;;;;;;;;;;;;10.17;61.52;98531.09;5048979;28;19932;-82
2021/09/04 07:12:57;;;;;;;;;;;;;;;10.33;61.47;98523.13;5034923;28;19974;-83
2021/09/04 07:15:23;;;;;;;;;;;;;;;10.33;60.88;98531.31;5059139;28;19948;-82
2021/09/04 07:17:49;;;;;;;;;;;;;;;10.53;60.60;98525.13;5047406;28;20390;-83
2021/09/04 07:20:14;;;;;;;;;;;;;;;10.57;59.84;98528.00;5051785;28;19933;-83
2021/09/04 07:22:40;;;;;;;;;;;;;;;10.66;58.98;98536.09;5029553;28;19936;-83
2021/09/04 07:25:06;;;;;;;;;;;;;;;10.53;56.59;98548.91;5047647;28;19925;-83
2021/09/04 07:27:34;;;;;;;;;;;;;;;10.57;57.27;98542.44;5051281;28;19935;-82
2021/09/04 07:30:00;;;;;;;;;;;;;;;10.62;56.25;98551.56;5067125;28;19963;-82
2021/09/04 07:32:26;;;;;;;;;;;;;;;10.73;56.05;98531.72;5046731;28;20378;-82
2021/09/04 07:34:51;;;;;;;;;;;;;;;10.88;55.36;98545.94;5076950;28;19924;-84
2021/09/04 07:37:18;;;;;;;;;;;;;;;10.85;55.31;98543.84;5074603;28;19947;-81
2021/09/04 07:39:44;;;;;;;;;;;;;;;10.88;57.40;98544.00;5071582;28;20390;-82
2021/09/04 07:42:10;;;;;;;;;;;;;;;10.82;56.23;98548.06;5071942;28;20000;-81
2021/09/04 07:44:36;;;;;;;;;;;;;;;10.78;56.41;98541.66;5054350;28;19998;-91
2021/09/04 07:47:03;;;;;;;;;;;;;;;10.73;57.33;98547.34;5105541;28;19924;-93
2021/09/04 07:49:28;;;;;;;;;;;;;;;10.68;57.15;98540.13;5068535;28;19947;-93
2021/09/04 07:51:55;;;;;;;;;;;;;;;10.81;58.22;98546.47;5087715;28;19931;-82
2021/09/04 07:54:21;;;;;;;;;;;;;;;10.88;57.07;98549.47;5074474;28;20023;-82
2021/09/04 07:56:47;;;;;;;;;;;;;;;10.88;54.54;98540.47;5082699;28;20078;-81
2021/09/04 07:59:13;;;;;;;;;;;;;;;10.99;54.91;98545.19;5071223;28;19925;-85
2021/09/04 08:01:39;;;;;;;;;;;;;;;10.93;55.58;98546.53;5071068;28;19978;-87
2021/09/04 08:04:05;;;;;;;;;;;;;;;10.91;56.31;98545.25;5071692;28;20313;-80
2021/09/04 08:06:31;;;;;;;;;;;;;;;11.00;54.69;98555.00;5086725;28;19924;-81
2021/09/04 08:08:56;;;;;;;;;;;;;;;11.07;53.97;98545.47;5074940;28;19929;-79
2021/09/04 08:11:23;;;;;;;;;;;;;;;11.33;53.50;98542.50;5054171;28;20283;-80
2021/09/04 08:13:49;;;;;;;;;;;;;;;11.59;53.13;98547.69;5071938;28;19925;-81
2021/09/04 08:16:14;;;;;;;;;;;;;;;11.57;51.24;98563.66;5072302;28;19929;-86
2021/09/04 08:18:40;;;;;;;;;;;;;;;11.47;52.36;98562.13;5056748;28;19991;-79
2021/09/04 08:21:06;;;;;;;;;;;;;;;11.47;53.44;98567.63;5075191;28;19931;-81
2021/09/04 08:23:32;;;;;;;;;;;;;;;11.44;56.21;98558.13;5070712;28;19931;-82
2021/09/04 08:25:58;;;;;;;;;;;;;;;11.40;54.84;98565.44;5072069;28;19924;-87
2021/09/04 08:28:23;;;;;;;;;;;;;;;11.43;56.72;98559.28;5070314;28;20307;-77
2021/09/04 08:30:51;;;;;;;;;;;;;;;11.69;54.02;98566.44;5070374;28;21250;-84
2021/09/04 08:33:18;;;;;;;;;;;;;;;11.82;52.39;98551.63;5069983;28;20015;-83
2021/09/04 08:35:45;;;;;;;;;;;;;;;11.94;54.20;98551.66;5070052;28;19924;-77
2021/09/04 08:38:10;;;;;;;;;;;;;;;11.94;54.45;98568.09;5077336;28;19964;-80
2021/09/04 08:40:41;;;;;;;;;;;;;;;11.51;54.99;98572.06;5057188;28;19983;-89
2021/09/04 08:43:08;;;;;;;;;;;;;;;11.25;57.72;98594.19;5092015;28;19928;-90
2021/09/04 08:45:34;;;;;;;;;;;;;;;11.00;58.49;98579.59;5056514;28;19947;-89
2021/09/04 08:48:02;;;;;;;;;;;;;;;10.83;57.95;98577.00;5074596;28;20010;-89
2021/09/04 08:50:29;;;;;;;;;;;;;;;10.78;58.82;98579.94;5040882;28;20331;-90
2021/09/04 08:52:55;;;;;;;;;;;;;;;10.99;58.62;98580.75;5057421;28;19931;-88
2021/09/04 08:55:22;;;;;;;;;;;;;;;11.20;58.37;98583.47;5052304;28;19978;-90
2021/09/04 08:57:51;;;;;;;;;;;;;;;11.36;58.08;98580.94;5056268;28;20031;-87
2021/09/04 09:00:27;;;;;;;;;;;;;;;11.49;55.46;98579.84;5042102;28;20050;-90
2021/09/04 09:02:55;;;;;;;;;;;;;;;11.63;55.69;98579.53;5057431;28;19947;-86
2021/09/04 09:05:20;;;;;;;;;;;;;;;11.83;56.31;98586.09;5074733;28;19973;-82
2021/09/04 09:07:48;;;;;;;;;;;;;;;12.15;56.08;98576.25;5089677;28;19931;-81
2021/09/04 09:10:23;;;;;;;;;;;;;;;12.30;54.81;98585.72;5095014;28;19924;-88
2021/09/04 09:12:49;;;;;;;;;;;;;;;12.23;54.94;98588.22;5086574;28;20270;-87
2021/09/04 09:15:29;;;;;;;;;;;;;;;12.14;55.45;98577.38;5057463;28;19932;-90
2021/09/04 09:17:59;;;;;;;;;;;;;;;12.14;55.03;98576.56;5066092;28;19928;-88
2021/09/04 09:20:25;;;;;;;;;;;;;;;12.23;54.87;98574.53;5094897;28;19959;-87
2021/09/04 09:22:51;;;;;;;;;;;;;;;12.08;51.50;98608.06;5076163;28;19959;-87
2021/09/04 09:25:18;;;;;;;;;;;;;;;11.99;52.03;98578.03;5069937;28;19930;-87
2021/09/04 09:28:03;;;;;;;;;;;;;;;12.18;51.47;98583.75;5051368;28;19931;-90
2021/09/04 09:30:35;;;;;;;;;;;;;;;12.27;50.65;98583.66;5041193;28;20393;-87
2021/09/04 09:33:01;;;;;;;;;;;;;;;12.43;51.84;98592.78;5058956;28;20062;-87
2021/09/04 09:35:31;;;;;;;;;;;;;;;12.41;52.98;98584.09;5065303;28;19935;-86
2021/09/04 09:38:00;;;;;;;;;;;;;;;12.25;53.81;98605.13;5101413;28;19925;-87
2021/09/04 09:40:26;;;;;;;;;;;;;;;12.02;54.64;98598.47;5082006;28;19971;-89
2021/09/04 09:42:52;;;;;;;;;;;;;;;11.80;58.60;98621.56;5075129;28;19930;-87
2021/09/04 09:45:18;;;;;;;;;;;;;;;11.55;61.35;98620.66;5056954;28;19924;-85
2021/09/04 09:47:51;;;;;;;;;;;;;;;11.26;65.02;98620.44;5088130;28;19924;-79
2021/09/04 09:50:18;;;;;;;;;;;;;;;11.23;63.73;98623.03;5082386;28;19928;-82
2021/09/04 09:52:45;;;;;;;;;;;;;;;11.33;63.61;98621.84;5075459;28;19970;-76
2021/09/04 09:55:11;;;;;;;;;;;;;;;11.33;64.98;98625.38;5078854;28;20360;-87
2021/09/04 09:57:43;;;;;;;;;;;;;;;11.23;62.17;98626.56;5072167;28;20357;-85
2021/09/04 10:00:17;;;;;;;;;;;;;;;11.24;64.10;98624.63;5075010;28;19924;-79
2021/09/04 10:02:46;;;;;;;;;;;;;;;11.14;61.26;98631.31;5064278;28;19928;-79
2021/09/04 10:05:14;;;;;;;;;;;;;;;11.11;61.54;98625.69;5053552;28;19928;-83
2021/09/04 10:07:40;;;;;;;;;;;;;;;11.01;63.02;98624.16;5047521;28;19924;-80
2021/09/04 10:10:08;;;;;;;;;;;;;;;11.03;61.17;98635.59;5052240;28;19924;-81
2021/09/04 10:12:38;;;;;;;;;;;;;;;11.10;62.89;98633.13;5048528;28;19936;-81
2021/09/04 10:15:05;;;;;;;;;;;;;;;11.22;61.19;98627.69;5048235;28;19929;-81
2021/09/04 10:17:34;;;;;;;;;;;;;;;11.19;62.91;98616.63;5045980;28;19936;-80
2021/09/04 10:20:05;;;;;;;;;;;;;;;11.36;62.90;98629.38;5049190;28;19979;-81
2021/09/04 10:22:33;;;;;;;;;;;;;;;11.52;61.38;98636.63;5035284;28;19929;-81
2021/09/04 10:25:13;;;;;;;;;;;;;;;11.67;59.25;98642.63;5048670;28;20027;-82
2021/09/04 10:27:44;;;;;;;;;;;;;;;11.72;58.40;98624.06;5044875;28;20463;-81
2021/09/04 10:30:25;;;;;;;;;;;;;;;11.75;58.37;98637.06;5052159;28;19935;-82
2021/09/04 10:33:05;;;;;;;;;;;;;;;11.71;59.65;98635.31;5038710;28;20876;-81
2021/09/04 10:35:58;;;;;;;;;;;;;;;11.90;58.44;98649.34;5045745;28;20456;-81
2021/09/04 10:38:31;;;;;;;;;;;;;;;11.95;57.99;98646.41;5043547;28;19981;-82
2021/09/04 10:41:18;;;;;;;;;;;;;;;11.81;58.51;98645.84;5044716;28;19924;-81
2021/09/04 10:43:53;;;;;;;;;;;;;;;11.76;58.77;98644.13;5042914;28;19928;-82
2021/09/04 10:46:22;;;;;;;;;;;;;;;11.79;57.71;98637.19;5044680;28;19932;-81
2021/09/04 10:48:59;;;;;;;;;;;;;;;12.01;55.43;98644.22;5041078;28;20401;-81
2021/09/04 10:52:02;;;;;;;;;;;;;;;12.22;56.25;98641.44;5029280;28;19964;-81
2021/09/04 10:54:39;;;;;;;;;;;;;;;12.48;54.32;98629.34;5012274;28;19933;-81
2021/09/04 10:57:24;;;;;;;;;;;;;;;12.75;53.53;98636.88;5020391;28;19925;-87
2021/09/04 11:00:08;;;;;;;;;;;;;;;12.82;51.68;98631.63;5010481;28;19929;-81
2021/09/04 11:02:43;;;;;;;;;;;;;;;12.88;49.26;98634.91;5010458;28;19925;-81
2021/09/04 11:05:29;;;;;;;;;;;;;;;13.08;51.51;98635.94;5012632;28;19926;-76
2021/09/04 11:08:01;;;;;;;;;;;;;;;13.26;51.11;98640.03;5023011;28;19979;-83
2021/09/04 11:10:27;;;;;;;;;;;;;;;13.42;50.04;98636.56;5025192;28;20068;-84
2021/09/04 11:13:06;;;;;;;;;;;;;;;13.43;49.11;98652.69;5009773;28;19922;-84
2021/09/04 11:15:32;;;;;;;;;;;;;;;13.37;50.28;98626.59;4991328;28;20310;-84
2021/09/04 11:17:58;;;;;;;;;;;;;;;13.45;49.40;98653.13;4997550;28;19929;-85
2021/09/04 11:20:25;;;;;;;;;;;;;;;13.39;47.99;98646.28;5008401;28;20020;-86
2021/09/04 11:22:51;;;;;;;;;;;;;;;13.44;48.96;98639.75;5002017;28;20405;-85
2021/09/04 11:25:20;;;;;;;;;;;;;;;13.55;48.84;98638.13;5027830;28;19925;-84
2021/09/04 11:27:46;;;;;;;;;;;;;;;13.54;48.32;98653.78;5033133;28;19920;-86
2021/09/04 11:30:22;;;;;;;;;;;;;;;13.30;48.56;98654.66;5046927;28;19931;-83
2021/09/04 11:32:50;;;;;;;;;;;;;;;12.66;48.99;98680.88;5082912;28;19940;-84
2021/09/04 11:35:17;;;;;;;;;;;;;;;12.17;54.98;98707.41;5051983;28;20050;-83
2021/09/04 11:37:44;;;;;;;;;;;;;;;11.35;60.77;98718.84;5051739;28;19925;-85
2021/09/04 11:40:12;;;;;;;;;;;;;;;10.80;63.50;98733.50;5052321;28;19978;-85
2021/09/04 11:42:40;;;;;;;;;;;;;;;10.52;62.54;98719.44;5053230;28;19924;-84
2021/09/04 11:45:07;;;;;;;;;;;;;;;10.51;65.18;98731.53;5050775;28;19924;-84
2021/09/04 11:47:34;;;;;;;;;;;;;;;10.21;66.07;98714.22;5051875;28;20348;-82
2021/09/04 11:50:01;;;;;;;;;;;;;;;10.06;65.51;98704.59;5050613;28;20374;-84
2021/09/04 11:52:28;;;;;;;;;;;;;;;9.94;63.58;98699.03;5051765;28;19964;-83
2021/09/04 11:55:13;;;;;;;;;;;;;;;10.02;66.94;98711.84;5052812;28;19971;-84
2021/09/04 11:57:40;;;;;;;;;;;;;;;10.25;64.96;98707.78;5061545;28;19925;-85
2021/09/04 12:00:10;;;;;;;;;;;;;;;10.49;67.09;98703.72;5071795;28;19931;-84
2021/09/04 12:02:42;;;;;;;;;;;;;;;10.64;62.39;98702.38;5071701;28;19968;-84
2021/09/04 12:05:09;;;;;;;;;;;;;;;10.69;63.36;98700.25;5055053;28;19924;-86
2021/09/04 12:07:36;;;;;;;;;;;;;;;10.79;64.59;98691.69;5053800;28;19938;-83
2021/09/04 12:10:04;;;;;;;;;;;;;;;10.99;63.82;98689.31;5071653;28;19924;-84
2021/09/04 12:12:30;;;;;;;;;;;;;;;11.13;63.73;98692.63;5071500;28;19924;-84
2021/09/04 12:14:57;;;;;;;;;;;;;;;11.23;64.48;98705.91;5078797;28;19924;-84
2021/09/04 12:17:23;;;;;;;;;;;;;;;11.16;65.53;98696.59;5091709;28;19931;-85
2021/09/04 12:19:49;;;;;;;;;;;;;;;11.17;64.31;98698.22;5094712;28;19958;-84
2021/09/04 12:22:15;;;;;;;;;;;;;;;11.13;64.49;98697.31;5095927;28;19920;-85
2021/09/04 12:24:41;;;;;;;;;;;;;;;11.25;65.61;98706.38;5075692;28;19924;-84
2021/09/04 12:27:07;;;;;;;;;;;;;;;11.33;62.96;98703.94;5077801;28;20054;-85
2021/09/04 12:29:34;;;;;;;;;;;;;;;11.43;64.05;98690.66;5095735;28;19973;-83
2021/09/04 12:32:06;;;;;;;;;;;;;;;11.56;61.27;98698.94;5095967;28;19924;-89
2021/09/04 12:34:32;;;;;;;;;;;;;;;11.64;60.06;98696.09;5062086;28;19924;-87
2021/09/04 12:36:58;;;;;;;;;;;;;;;11.75;59.58;98691.00;5077363;28;20482;-85
2021/09/04 12:39:28;;;;;;;;;;;;;;;11.86;60.41;98688.72;5095508;28;20034;-86
2021/09/04 12:42:04;;;;;;;;;;;;;;;12.11;58.97;98704.06;5095485;28;19926;-85
2021/09/04 12:44:35;;;;;;;;;;;;;;;12.37;59.57;98708.47;5094442;28;20408;-91
2021/09/04 12:47:02;;;;;;;;;;;;;;;12.38;58.69;98699.94;5041518;28;19927;-90
2021/09/04 12:49:30;;;;;;;;;;;;;;;12.33;57.62;98710.31;5057751;28;20379;-81
2021/09/04 12:52:05;;;;;;;;;;;;;;;12.24;58.27;98713.13;5075100;28;20431;-86
2021/09/04 12:54:42;;;;;;;;;;;;;;;12.20;61.39;98710.25;5076510;28;19932;-91
2021/09/04 12:57:11;;;;;;;;;;;;;;;12.07;58.37;98719.59;5039688;28;20039;-91